sensor_id;sensor_type;location;lat;lon;timestamp;P1;durP1;ratioP1;P2;durP2;ratioP2
77800;SDS011;66991;50.058;14.454;2023-08-24T00:01:10;7.10;;;4.78;;
77800;SDS011;66991;50.058;14.454;2023-08-24T00:03:37;8.73;;;4.93;;
77800;SDS011;66991;50.058;14.454;2023-08-24T00:06:03;8.10;;;5.30;;
77800;SDS011;66991;50.058;14.454;2023-08-24T00:08:28;8.65;;;5.28;;
77800;SDS011;66991;50.058;14.454;2023-08-24T00:10:54;9.93;;;4.68;;
77800;SDS011;66991;50.058;14.454;2023-08-24T00:13:19;6.88;;;4.30;;
77800;SDS011;66991;50.058;14.454;2023-08-24T00:15:44;8.70;;;5.00;;
77800;SDS011;66991;50.058;14.454;2023-08-24T00:18:10;6.55;;;4.90;;
77800;SDS011;66991;50.058;14.454;2023-08-24T00:20:35;8.63;;;4.72;;
77800;SDS011;66991;50.058;14.454;2023-08-24T00:23:02;6.88;;;4.25;;
77800;SDS011;66991;50.058;14.454;2023-08-24T00:25:28;7.25;;;5.03;;
77800;SDS011;66991;50.058;14.454;2023-08-24T00:27:53;7.15;;;4.68;;
77800;SDS011;66991;50.058;14.454;2023-08-24T00:30:19;6.90;;;4.60;;
77800;SDS011;66991;50.058;14.454;2023-08-24T00:32:44;6.15;;;4.95;;
77800;SDS011;66991;50.058;14.454;2023-08-24T00:35:10;5.88;;;4.47;;
77800;SDS011;66991;50.058;14.454;2023-08-24T00:37:36;7.72;;;4.80;;
77800;SDS011;66991;50.058;14.454;2023-08-24T00:40:02;6.85;;;4.90;;
77800;SDS011;66991;50.058;14.454;2023-08-24T00:42:29;8.13;;;5.07;;
77800;SDS011;66991;50.058;14.454;2023-08-24T00:44:56;6.95;;;4.70;;
77800;SDS011;66991;50.058;14.454;2023-08-24T00:47:22;8.30;;;4.70;;
77800;SDS011;66991;50.058;14.454;2023-08-24T00:49:47;12.15;;;5.75;;
77800;SDS011;66991;50.058;14.454;2023-08-24T00:52:12;11.43;;;5.60;;
77800;SDS011;66991;50.058;14.454;2023-08-24T00:54:38;10.10;;;5.22;;
77800;SDS011;66991;50.058;14.454;2023-08-24T00:57:04;8.98;;;5.10;;
77800;SDS011;66991;50.058;14.454;2023-08-24T00:59:30;8.75;;;5.30;;
77800;SDS011;66991;50.058;14.454;2023-08-24T01:01:56;11.45;;;5.15;;
77800;SDS011;66991;50.058;14.454;2023-08-24T01:04:22;8.82;;;5.50;;
77800;SDS011;66991;50.058;14.454;2023-08-24T01:06:47;7.80;;;5.00;;
77800;SDS011;66991;50.058;14.454;2023-08-24T01:09:13;8.75;;;5.50;;
77800;SDS011;66991;50.058;14.454;2023-08-24T01:14:50;7.35;;;4.80;;
77800;SDS011;66991;50.058;14.454;2023-08-24T01:17:18;11.02;;;5.50;;
77800;SDS011;66991;50.058;14.454;2023-08-24T01:19:47;7.95;;;5.28;;
77800;SDS011;66991;50.058;14.454;2023-08-24T01:25:07;7.22;;;4.72;;
77800;SDS011;66991;50.058;14.454;2023-08-24T01:27:37;7.28;;;4.72;;
77800;SDS011;66991;50.058;14.454;2023-08-24T01:30:03;10.02;;;5.25;;
77800;SDS011;66991;50.058;14.454;2023-08-24T01:32:32;7.32;;;4.97;;
77800;SDS011;66991;50.058;14.454;2023-08-24T01:35:01;8.98;;;4.93;;
77800;SDS011;66991;50.058;14.454;2023-08-24T01:37:28;12.07;;;5.30;;
77800;SDS011;66991;50.058;14.454;2023-08-24T01:39:58;9.45;;;5.55;;
77800;SDS011;66991;50.058;14.454;2023-08-24T01:42:56;9.10;;;5.13;;
77800;SDS011;66991;50.058;14.454;2023-08-24T01:45:24;7.32;;;4.97;;
77800;SDS011;66991;50.058;14.454;2023-08-24T01:47:52;7.85;;;5.38;;
77800;SDS011;66991;50.058;14.454;2023-08-24T01:50:19;6.95;;;5.07;;
77800;SDS011;66991;50.058;14.454;2023-08-24T01:52:45;8.75;;;5.00;;
77800;SDS011;66991;50.058;14.454;2023-08-24T01:55:11;8.77;;;5.22;;
77800;SDS011;66991;50.058;14.454;2023-08-24T01:57:37;10.43;;;5.38;;
77800;SDS011;66991;50.058;14.454;2023-08-24T02:00:02;11.07;;;5.22;;
77800;SDS011;66991;50.058;14.454;2023-08-24T02:02:31;13.00;;;5.93;;
77800;SDS011;66991;50.058;14.454;2023-08-24T02:04:58;11.50;;;5.75;;
77800;SDS011;66991;50.058;14.454;2023-08-24T02:07:23;7.97;;;5.65;;
77800;SDS011;66991;50.058;14.454;2023-08-24T02:09:48;13.40;;;5.80;;
77800;SDS011;66991;50.058;14.454;2023-08-24T02:12:14;10.57;;;5.55;;
77800;SDS011;66991;50.058;14.454;2023-08-24T02:14:39;10.10;;;5.78;;
77800;SDS011;66991;50.058;14.454;2023-08-24T02:17:04;10.48;;;5.25;;
77800;SDS011;66991;50.058;14.454;2023-08-24T02:19:30;11.40;;;5.85;;
77800;SDS011;66991;50.058;14.454;2023-08-24T02:21:55;11.82;;;5.68;;
77800;SDS011;66991;50.058;14.454;2023-08-24T02:24:20;7.93;;;5.60;;
77800;SDS011;66991;50.058;14.454;2023-08-24T02:26:46;9.75;;;5.20;;
77800;SDS011;66991;50.058;14.454;2023-08-24T02:29:11;11.43;;;5.70;;
77800;SDS011;66991;50.058;14.454;2023-08-24T02:31:36;10.77;;;5.75;;
77800;SDS011;66991;50.058;14.454;2023-08-24T02:34:02;8.45;;;5.25;;
77800;SDS011;66991;50.058;14.454;2023-08-24T02:36:27;9.38;;;5.15;;
77800;SDS011;66991;50.058;14.454;2023-08-24T02:38:53;11.50;;;5.65;;
77800;SDS011;66991;50.058;14.454;2023-08-24T02:41:19;9.48;;;5.07;;
77800;SDS011;66991;50.058;14.454;2023-08-24T02:43:44;9.23;;;5.80;;
77800;SDS011;66991;50.058;14.454;2023-08-24T02:46:09;10.07;;;5.30;;
77800;SDS011;66991;50.058;14.454;2023-08-24T02:48:35;11.13;;;5.75;;
77800;SDS011;66991;50.058;14.454;2023-08-24T02:51:01;10.27;;;6.32;;
77800;SDS011;66991;50.058;14.454;2023-08-24T02:53:28;10.20;;;5.53;;
77800;SDS011;66991;50.058;14.454;2023-08-24T02:55:54;11.05;;;5.72;;
77800;SDS011;66991;50.058;14.454;2023-08-24T02:58:19;8.55;;;5.55;;
77800;SDS011;66991;50.058;14.454;2023-08-24T03:00:45;12.35;;;5.07;;
77800;SDS011;66991;50.058;14.454;2023-08-24T03:03:12;12.77;;;5.53;;
77800;SDS011;66991;50.058;14.454;2023-08-24T03:05:41;11.45;;;5.70;;
77800;SDS011;66991;50.058;14.454;2023-08-24T03:08:07;9.00;;;5.25;;
77800;SDS011;66991;50.058;14.454;2023-08-24T03:10:35;8.18;;;5.22;;
77800;SDS011;66991;50.058;14.454;2023-08-24T03:13:01;9.02;;;5.30;;
77800;SDS011;66991;50.058;14.454;2023-08-24T03:15:26;8.13;;;5.10;;
77800;SDS011;66991;50.058;14.454;2023-08-24T03:17:52;8.80;;;5.00;;
77800;SDS011;66991;50.058;14.454;2023-08-24T03:20:17;9.60;;;5.53;;
77800;SDS011;66991;50.058;14.454;2023-08-24T03:22:43;11.15;;;6.00;;
77800;SDS011;66991;50.058;14.454;2023-08-24T03:25:08;8.07;;;5.60;;
77800;SDS011;66991;50.058;14.454;2023-08-24T03:27:34;7.72;;;5.45;;
77800;SDS011;66991;50.058;14.454;2023-08-24T03:30:00;7.70;;;4.95;;
77800;SDS011;66991;50.058;14.454;2023-08-24T03:32:25;6.65;;;5.15;;
77800;SDS011;66991;50.058;14.454;2023-08-24T03:34:50;11.60;;;6.00;;
77800;SDS011;66991;50.058;14.454;2023-08-24T03:37:16;8.25;;;4.97;;
77800;SDS011;66991;50.058;14.454;2023-08-24T03:39:41;8.25;;;5.18;;
77800;SDS011;66991;50.058;14.454;2023-08-24T03:42:07;7.85;;;5.45;;
77800;SDS011;66991;50.058;14.454;2023-08-24T03:44:32;7.30;;;5.30;;
77800;SDS011;66991;50.058;14.454;2023-08-24T03:46:58;8.45;;;5.50;;
77800;SDS011;66991;50.058;14.454;2023-08-24T03:49:23;8.13;;;5.38;;
77800;SDS011;66991;50.058;14.454;2023-08-24T03:51:48;11.82;;;5.15;;
77800;SDS011;66991;50.058;14.454;2023-08-24T03:54:13;8.32;;;5.43;;
77800;SDS011;66991;50.058;14.454;2023-08-24T03:56:39;8.05;;;5.15;;
77800;SDS011;66991;50.058;14.454;2023-08-24T03:59:04;9.30;;;6.15;;
77800;SDS011;66991;50.058;14.454;2023-08-24T04:01:30;8.85;;;5.57;;
77800;SDS011;66991;50.058;14.454;2023-08-24T04:03:55;8.00;;;5.40;;
77800;SDS011;66991;50.058;14.454;2023-08-24T04:06:20;9.48;;;5.72;;
77800;SDS011;66991;50.058;14.454;2023-08-24T04:08:46;7.88;;;5.80;;
77800;SDS011;66991;50.058;14.454;2023-08-24T04:11:11;8.15;;;5.50;;
77800;SDS011;66991;50.058;14.454;2023-08-24T04:13:36;8.98;;;5.80;;
77800;SDS011;66991;50.058;14.454;2023-08-24T04:16:02;9.75;;;6.10;;
77800;SDS011;66991;50.058;14.454;2023-08-24T04:18:28;7.57;;;5.60;;
77800;SDS011;66991;50.058;14.454;2023-08-24T04:20:54;9.82;;;5.97;;
77800;SDS011;66991;50.058;14.454;2023-08-24T04:23:23;9.57;;;6.10;;
77800;SDS011;66991;50.058;14.454;2023-08-24T04:25:50;8.70;;;6.60;;
77800;SDS011;66991;50.058;14.454;2023-08-24T04:28:15;8.77;;;5.45;;
77800;SDS011;66991;50.058;14.454;2023-08-24T04:30:40;7.45;;;5.65;;
77800;SDS011;66991;50.058;14.454;2023-08-24T04:33:05;9.82;;;5.72;;
77800;SDS011;66991;50.058;14.454;2023-08-24T04:35:33;11.60;;;6.13;;
77800;SDS011;66991;50.058;14.454;2023-08-24T04:37:59;11.45;;;6.20;;
77800;SDS011;66991;50.058;14.454;2023-08-24T04:40:25;9.10;;;6.05;;
77800;SDS011;66991;50.058;14.454;2023-08-24T04:42:50;12.52;;;6.03;;
77800;SDS011;66991;50.058;14.454;2023-08-24T04:45:15;6.82;;;5.85;;
77800;SDS011;66991;50.058;14.454;2023-08-24T04:47:41;11.00;;;6.18;;
77800;SDS011;66991;50.058;14.454;2023-08-24T04:50:06;9.10;;;5.95;;
77800;SDS011;66991;50.058;14.454;2023-08-24T04:52:32;10.05;;;6.00;;
77800;SDS011;66991;50.058;14.454;2023-08-24T04:54:57;11.15;;;6.40;;
77800;SDS011;66991;50.058;14.454;2023-08-24T04:57:23;9.95;;;5.80;;
77800;SDS011;66991;50.058;14.454;2023-08-24T04:59:48;8.23;;;6.13;;
77800;SDS011;66991;50.058;14.454;2023-08-24T05:02:13;7.85;;;5.47;;
77800;SDS011;66991;50.058;14.454;2023-08-24T05:04:39;11.35;;;6.38;;
77800;SDS011;66991;50.058;14.454;2023-08-24T05:07:04;10.90;;;6.30;;
77800;SDS011;66991;50.058;14.454;2023-08-24T05:09:29;7.40;;;6.20;;
77800;SDS011;66991;50.058;14.454;2023-08-24T05:11:55;9.43;;;6.38;;
77800;SDS011;66991;50.058;14.454;2023-08-24T05:14:20;9.93;;;5.82;;
77800;SDS011;66991;50.058;14.454;2023-08-24T05:16:45;8.50;;;5.97;;
77800;SDS011;66991;50.058;14.454;2023-08-24T05:19:10;10.13;;;6.43;;
77800;SDS011;66991;50.058;14.454;2023-08-24T05:21:36;8.20;;;5.78;;
77800;SDS011;66991;50.058;14.454;2023-08-24T05:24:01;8.38;;;5.75;;
77800;SDS011;66991;50.058;14.454;2023-08-24T05:26:29;9.70;;;6.05;;
77800;SDS011;66991;50.058;14.454;2023-08-24T05:28:54;8.27;;;6.13;;
77800;SDS011;66991;50.058;14.454;2023-08-24T05:31:19;8.38;;;6.10;;
77800;SDS011;66991;50.058;14.454;2023-08-24T05:33:45;9.45;;;5.57;;
77800;SDS011;66991;50.058;14.454;2023-08-24T05:36:10;10.80;;;6.07;;
77800;SDS011;66991;50.058;14.454;2023-08-24T05:38:36;8.75;;;5.78;;
77800;SDS011;66991;50.058;14.454;2023-08-24T05:41:01;12.13;;;6.20;;
77800;SDS011;66991;50.058;14.454;2023-08-24T05:43:26;13.52;;;6.03;;
77800;SDS011;66991;50.058;14.454;2023-08-24T05:45:51;8.05;;;5.40;;
77800;SDS011;66991;50.058;14.454;2023-08-24T05:48:17;9.80;;;6.15;;
77800;SDS011;66991;50.058;14.454;2023-08-24T05:50:46;11.07;;;6.00;;
77800;SDS011;66991;50.058;14.454;2023-08-24T05:53:11;15.75;;;6.57;;
77800;SDS011;66991;50.058;14.454;2023-08-24T05:55:37;12.68;;;6.80;;
77800;SDS011;66991;50.058;14.454;2023-08-24T05:58:03;13.13;;;6.40;;
77800;SDS011;66991;50.058;14.454;2023-08-24T06:00:28;9.90;;;5.85;;
77800;SDS011;66991;50.058;14.454;2023-08-24T06:02:54;8.60;;;5.78;;
77800;SDS011;66991;50.058;14.454;2023-08-24T06:05:20;10.35;;;5.47;;
77800;SDS011;66991;50.058;14.454;2023-08-24T06:07:45;9.93;;;6.00;;
77800;SDS011;66991;50.058;14.454;2023-08-24T06:10:10;8.23;;;5.53;;
77800;SDS011;66991;50.058;14.454;2023-08-24T06:12:36;15.05;;;6.40;;
77800;SDS011;66991;50.058;14.454;2023-08-24T06:15:02;12.07;;;6.35;;
77800;SDS011;66991;50.058;14.454;2023-08-24T06:17:29;9.32;;;6.47;;
77800;SDS011;66991;50.058;14.454;2023-08-24T06:19:54;10.63;;;6.65;;
77800;SDS011;66991;50.058;14.454;2023-08-24T06:22:20;10.32;;;6.47;;
77800;SDS011;66991;50.058;14.454;2023-08-24T06:24:45;10.77;;;5.97;;
77800;SDS011;66991;50.058;14.454;2023-08-24T06:27:10;9.60;;;5.25;;
77800;SDS011;66991;50.058;14.454;2023-08-24T06:29:36;11.45;;;7.05;;
77800;SDS011;66991;50.058;14.454;2023-08-24T06:32:01;14.18;;;6.63;;
77800;SDS011;66991;50.058;14.454;2023-08-24T06:34:26;8.40;;;5.80;;
77800;SDS011;66991;50.058;14.454;2023-08-24T06:36:52;8.88;;;5.90;;
77800;SDS011;66991;50.058;14.454;2023-08-24T06:39:18;10.00;;;6.32;;
77800;SDS011;66991;50.058;14.454;2023-08-24T06:41:44;10.18;;;5.30;;
77800;SDS011;66991;50.058;14.454;2023-08-24T06:44:09;11.25;;;5.55;;
77800;SDS011;66991;50.058;14.454;2023-08-24T06:46:34;11.73;;;6.03;;
77800;SDS011;66991;50.058;14.454;2023-08-24T06:49:00;11.73;;;5.32;;
77800;SDS011;66991;50.058;14.454;2023-08-24T06:51:26;8.98;;;5.28;;
77800;SDS011;66991;50.058;14.454;2023-08-24T06:53:52;11.20;;;5.68;;
77800;SDS011;66991;50.058;14.454;2023-08-24T06:56:18;9.00;;;6.40;;
77800;SDS011;66991;50.058;14.454;2023-08-24T06:58:43;10.60;;;6.40;;
77800;SDS011;66991;50.058;14.454;2023-08-24T07:01:12;10.75;;;5.72;;
77800;SDS011;66991;50.058;14.454;2023-08-24T07:03:38;8.70;;;5.15;;
77800;SDS011;66991;50.058;14.454;2023-08-24T07:06:07;9.50;;;5.72;;
77800;SDS011;66991;50.058;14.454;2023-08-24T07:08:33;9.90;;;5.32;;
77800;SDS011;66991;50.058;14.454;2023-08-24T07:10:59;8.88;;;5.53;;
77800;SDS011;66991;50.058;14.454;2023-08-24T07:13:24;7.90;;;4.95;;
77800;SDS011;66991;50.058;14.454;2023-08-24T07:15:51;8.95;;;5.63;;
77800;SDS011;66991;50.058;14.454;2023-08-24T07:18:16;11.43;;;5.03;;
77800;SDS011;66991;50.058;14.454;2023-08-24T07:20:42;10.25;;;5.80;;
77800;SDS011;66991;50.058;14.454;2023-08-24T07:23:07;12.27;;;5.13;;
77800;SDS011;66991;50.058;14.454;2023-08-24T07:25:33;7.53;;;5.00;;
77800;SDS011;66991;50.058;14.454;2023-08-24T07:27:58;7.85;;;4.65;;
77800;SDS011;66991;50.058;14.454;2023-08-24T07:30:25;6.35;;;4.07;;
77800;SDS011;66991;50.058;14.454;2023-08-24T07:32:51;10.18;;;4.97;;
77800;SDS011;66991;50.058;14.454;2023-08-24T07:35:17;12.35;;;5.07;;
77800;SDS011;66991;50.058;14.454;2023-08-24T07:37:43;9.15;;;4.80;;
77800;SDS011;66991;50.058;14.454;2023-08-24T07:40:08;7.43;;;4.82;;
77800;SDS011;66991;50.058;14.454;2023-08-24T07:42:42;8.40;;;4.88;;
77800;SDS011;66991;50.058;14.454;2023-08-24T07:45:11;9.35;;;4.95;;
77800;SDS011;66991;50.058;14.454;2023-08-24T07:47:37;10.00;;;5.30;;
77800;SDS011;66991;50.058;14.454;2023-08-24T07:50:02;10.35;;;4.97;;
77800;SDS011;66991;50.058;14.454;2023-08-24T07:52:28;8.25;;;5.22;;
77800;SDS011;66991;50.058;14.454;2023-08-24T07:54:54;12.07;;;5.38;;
77800;SDS011;66991;50.058;14.454;2023-08-24T07:57:20;8.55;;;4.70;;
77800;SDS011;66991;50.058;14.454;2023-08-24T07:59:45;7.65;;;4.53;;
77800;SDS011;66991;50.058;14.454;2023-08-24T08:02:11;7.45;;;4.63;;
77800;SDS011;66991;50.058;14.454;2023-08-24T08:04:36;7.50;;;4.50;;
77800;SDS011;66991;50.058;14.454;2023-08-24T08:07:01;7.88;;;3.75;;
77800;SDS011;66991;50.058;14.454;2023-08-24T08:09:27;8.32;;;3.90;;
77800;SDS011;66991;50.058;14.454;2023-08-24T08:11:52;8.07;;;4.20;;
77800;SDS011;66991;50.058;14.454;2023-08-24T08:14:18;5.78;;;3.75;;
77800;SDS011;66991;50.058;14.454;2023-08-24T08:16:45;6.45;;;3.85;;
77800;SDS011;66991;50.058;14.454;2023-08-24T08:19:10;5.95;;;3.95;;
77800;SDS011;66991;50.058;14.454;2023-08-24T08:21:35;6.38;;;3.95;;
77800;SDS011;66991;50.058;14.454;2023-08-24T08:24:01;9.68;;;4.10;;
77800;SDS011;66991;50.058;14.454;2023-08-24T08:26:26;9.27;;;4.03;;
77800;SDS011;66991;50.058;14.454;2023-08-24T08:28:52;7.85;;;3.63;;
77800;SDS011;66991;50.058;14.454;2023-08-24T08:31:17;8.25;;;3.90;;
77800;SDS011;66991;50.058;14.454;2023-08-24T08:33:42;11.90;;;4.57;;
77800;SDS011;66991;50.058;14.454;2023-08-24T08:36:08;9.07;;;4.57;;
77800;SDS011;66991;50.058;14.454;2023-08-24T08:38:33;8.65;;;4.20;;
77800;SDS011;66991;50.058;14.454;2023-08-24T08:41:02;8.65;;;3.70;;
77800;SDS011;66991;50.058;14.454;2023-08-24T08:43:28;6.95;;;3.72;;
77800;SDS011;66991;50.058;14.454;2023-08-24T08:45:55;15.60;;;4.55;;
77800;SDS011;66991;50.058;14.454;2023-08-24T08:48:21;7.47;;;3.63;;
77800;SDS011;66991;50.058;14.454;2023-08-24T08:50:49;6.38;;;3.42;;
77800;SDS011;66991;50.058;14.454;2023-08-24T08:53:15;5.38;;;3.17;;
77800;SDS011;66991;50.058;14.454;2023-08-24T08:55:40;7.45;;;3.30;;
77800;SDS011;66991;50.058;14.454;2023-08-24T08:58:06;8.05;;;3.08;;
77800;SDS011;66991;50.058;14.454;2023-08-24T09:00:31;9.98;;;3.75;;
77800;SDS011;66991;50.058;14.454;2023-08-24T09:02:57;8.55;;;3.28;;
77800;SDS011;66991;50.058;14.454;2023-08-24T09:05:22;6.22;;;2.92;;
77800;SDS011;66991;50.058;14.454;2023-08-24T09:07:51;8.68;;;3.80;;
77800;SDS011;66991;50.058;14.454;2023-08-24T09:10:16;9.10;;;3.67;;
77800;SDS011;66991;50.058;14.454;2023-08-24T09:12:41;8.48;;;3.42;;
77800;SDS011;66991;50.058;14.454;2023-08-24T09:15:07;7.20;;;3.42;;
77800;SDS011;66991;50.058;14.454;2023-08-24T09:17:33;8.65;;;3.65;;
77800;SDS011;66991;50.058;14.454;2023-08-24T09:20:00;7.43;;;3.80;;
77800;SDS011;66991;50.058;14.454;2023-08-24T09:22:35;6.95;;;3.92;;
77800;SDS011;66991;50.058;14.454;2023-08-24T09:25:01;8.30;;;3.70;;
77800;SDS011;66991;50.058;14.454;2023-08-24T09:27:29;7.68;;;3.42;;
77800;SDS011;66991;50.058;14.454;2023-08-24T09:29:54;8.40;;;3.88;;
77800;SDS011;66991;50.058;14.454;2023-08-24T09:32:29;5.68;;;3.22;;
77800;SDS011;66991;50.058;14.454;2023-08-24T09:34:56;9.57;;;3.22;;
77800;SDS011;66991;50.058;14.454;2023-08-24T09:37:31;9.23;;;3.42;;
77800;SDS011;66991;50.058;14.454;2023-08-24T09:40:04;7.88;;;3.30;;
77800;SDS011;66991;50.058;14.454;2023-08-24T09:42:37;8.73;;;3.30;;
77800;SDS011;66991;50.058;14.454;2023-08-24T09:45:07;9.38;;;3.35;;
77800;SDS011;66991;50.058;14.454;2023-08-24T09:47:35;5.50;;;3.30;;
77800;SDS011;66991;50.058;14.454;2023-08-24T09:50:01;8.25;;;3.10;;
77800;SDS011;66991;50.058;14.454;2023-08-24T09:52:28;8.35;;;3.15;;
77800;SDS011;66991;50.058;14.454;2023-08-24T09:54:56;7.60;;;3.65;;
77800;SDS011;66991;50.058;14.454;2023-08-24T09:57:25;5.95;;;3.08;;
77800;SDS011;66991;50.058;14.454;2023-08-24T09:59:51;6.20;;;3.25;;
77800;SDS011;66991;50.058;14.454;2023-08-24T10:02:17;6.28;;;3.17;;
77800;SDS011;66991;50.058;14.454;2023-08-24T10:04:45;8.63;;;3.38;;
77800;SDS011;66991;50.058;14.454;2023-08-24T10:07:13;4.13;;;3.03;;
77800;SDS011;66991;50.058;14.454;2023-08-24T10:12:17;9.07;;;4.10;;
77800;SDS011;66991;50.058;14.454;2023-08-24T10:14:47;8.80;;;3.50;;
77800;SDS011;66991;50.058;14.454;2023-08-24T10:17:18;5.65;;;3.30;;
77800;SDS011;66991;50.058;14.454;2023-08-24T10:19:44;6.35;;;3.80;;
77800;SDS011;66991;50.058;14.454;2023-08-24T10:22:10;4.60;;;3.33;;
77800;SDS011;66991;50.058;14.454;2023-08-24T10:24:36;7.30;;;3.45;;
77800;SDS011;66991;50.058;14.454;2023-08-24T10:27:02;7.03;;;3.30;;
77800;SDS011;66991;50.058;14.454;2023-08-24T10:29:28;6.45;;;3.33;;
77800;SDS011;66991;50.058;14.454;2023-08-24T10:31:54;7.03;;;3.90;;
77800;SDS011;66991;50.058;14.454;2023-08-24T10:34:19;8.68;;;3.97;;
77800;SDS011;66991;50.058;14.454;2023-08-24T10:36:47;5.90;;;3.60;;
77800;SDS011;66991;50.058;14.454;2023-08-24T10:39:12;7.90;;;4.03;;
77800;SDS011;66991;50.058;14.454;2023-08-24T10:41:48;6.65;;;3.60;;
77800;SDS011;66991;50.058;14.454;2023-08-24T10:44:19;6.68;;;3.75;;
77800;SDS011;66991;50.058;14.454;2023-08-24T10:49:37;7.72;;;3.28;;
77800;SDS011;66991;50.058;14.454;2023-08-24T10:52:22;7.72;;;3.47;;
77800;SDS011;66991;50.058;14.454;2023-08-24T10:54:52;5.65;;;3.75;;
77800;SDS011;66991;50.058;14.454;2023-08-24T10:57:19;6.82;;;3.90;;
77800;SDS011;66991;50.058;14.454;2023-08-24T11:02:44;5.63;;;3.75;;
77800;SDS011;66991;50.058;14.454;2023-08-24T11:05:23;7.35;;;3.80;;
77800;SDS011;66991;50.058;14.454;2023-08-24T11:08:04;6.03;;;3.90;;
77800;SDS011;66991;50.058;14.454;2023-08-24T11:10:34;7.35;;;3.80;;
77800;SDS011;66991;50.058;14.454;2023-08-24T11:13:14;6.13;;;4.00;;
77800;SDS011;66991;50.058;14.454;2023-08-24T11:15:44;5.82;;;3.65;;
77800;SDS011;66991;50.058;14.454;2023-08-24T11:20:47;6.75;;;3.55;;
77800;SDS011;66991;50.058;14.454;2023-08-24T11:23:19;8.30;;;3.58;;
77800;SDS011;66991;50.058;14.454;2023-08-24T11:25:46;4.63;;;3.60;;
77800;SDS011;66991;50.058;14.454;2023-08-24T11:28:16;4.63;;;3.08;;
77800;SDS011;66991;50.058;14.454;2023-08-24T11:30:42;4.85;;;3.53;;
77800;SDS011;66991;50.058;14.454;2023-08-24T11:33:07;6.80;;;3.88;;
77800;SDS011;66991;50.058;14.454;2023-08-24T11:35:34;6.28;;;3.97;;
77800;SDS011;66991;50.058;14.454;2023-08-24T11:38:01;9.35;;;3.85;;
77800;SDS011;66991;50.058;14.454;2023-08-24T11:40:26;8.55;;;3.80;;
77800;SDS011;66991;50.058;14.454;2023-08-24T11:42:55;4.55;;;3.80;;
77800;SDS011;66991;50.058;14.454;2023-08-24T11:45:21;6.43;;;3.88;;
77800;SDS011;66991;50.058;14.454;2023-08-24T11:47:47;5.88;;;3.38;;
77800;SDS011;66991;50.058;14.454;2023-08-24T11:50:13;9.57;;;3.67;;
77800;SDS011;66991;50.058;14.454;2023-08-24T11:52:38;7.97;;;3.28;;
77800;SDS011;66991;50.058;14.454;2023-08-24T11:55:07;5.22;;;3.35;;
77800;SDS011;66991;50.058;14.454;2023-08-24T11:57:34;5.65;;;3.20;;
77800;SDS011;66991;50.058;14.454;2023-08-24T12:00:00;6.68;;;3.60;;
77800;SDS011;66991;50.058;14.454;2023-08-24T12:02:26;7.60;;;3.65;;
77800;SDS011;66991;50.058;14.454;2023-08-24T12:04:52;13.18;;;3.67;;
77800;SDS011;66991;50.058;14.454;2023-08-24T12:07:17;5.55;;;3.42;;
77800;SDS011;66991;50.058;14.454;2023-08-24T12:09:43;6.40;;;3.10;;
77800;SDS011;66991;50.058;14.454;2023-08-24T12:12:12;9.50;;;4.13;;
77800;SDS011;66991;50.058;14.454;2023-08-24T12:14:43;3.60;;;3.20;;
77800;SDS011;66991;50.058;14.454;2023-08-24T12:17:10;6.82;;;3.25;;
77800;SDS011;66991;50.058;14.454;2023-08-24T12:19:35;5.20;;;3.03;;
77800;SDS011;66991;50.058;14.454;2023-08-24T12:22:01;6.63;;;3.90;;
77800;SDS011;66991;50.058;14.454;2023-08-24T12:24:26;6.78;;;3.75;;
77800;SDS011;66991;50.058;14.454;2023-08-24T12:26:55;10.27;;;3.58;;
77800;SDS011;66991;50.058;14.454;2023-08-24T12:29:22;10.68;;;3.30;;
77800;SDS011;66991;50.058;14.454;2023-08-24T12:31:47;5.85;;;3.55;;
77800;SDS011;66991;50.058;14.454;2023-08-24T12:34:14;5.90;;;3.45;;
77800;SDS011;66991;50.058;14.454;2023-08-24T12:36:39;6.57;;;3.10;;
77800;SDS011;66991;50.058;14.454;2023-08-24T12:39:06;8.07;;;3.25;;
77800;SDS011;66991;50.058;14.454;2023-08-24T12:41:33;5.63;;;3.42;;
77800;SDS011;66991;50.058;14.454;2023-08-24T12:43:59;8.45;;;4.03;;
77800;SDS011;66991;50.058;14.454;2023-08-24T12:48:55;7.83;;;3.00;;
77800;SDS011;66991;50.058;14.454;2023-08-24T12:51:20;5.47;;;3.10;;
77800;SDS011;66991;50.058;14.454;2023-08-24T12:53:45;6.80;;;2.92;;
77800;SDS011;66991;50.058;14.454;2023-08-24T12:56:10;5.97;;;3.20;;
77800;SDS011;66991;50.058;14.454;2023-08-24T12:58:36;6.82;;;3.38;;
77800;SDS011;66991;50.058;14.454;2023-08-24T13:01:01;7.25;;;3.30;;
77800;SDS011;66991;50.058;14.454;2023-08-24T13:03:27;5.93;;;3.33;;
77800;SDS011;66991;50.058;14.454;2023-08-24T13:05:53;5.22;;;3.13;;
77800;SDS011;66991;50.058;14.454;2023-08-24T13:08:18;7.18;;;3.28;;
77800;SDS011;66991;50.058;14.454;2023-08-24T13:10:43;8.93;;;3.30;;
77800;SDS011;66991;50.058;14.454;2023-08-24T13:13:09;6.35;;;3.22;;
77800;SDS011;66991;50.058;14.454;2023-08-24T13:15:34;9.07;;;3.13;;
77800;SDS011;66991;50.058;14.454;2023-08-24T13:18:00;7.72;;;3.20;;
77800;SDS011;66991;50.058;14.454;2023-08-24T13:20:25;4.90;;;2.55;;
77800;SDS011;66991;50.058;14.454;2023-08-24T13:22:52;5.18;;;3.20;;
77800;SDS011;66991;50.058;14.454;2023-08-24T13:25:17;4.78;;;2.88;;
77800;SDS011;66991;50.058;14.454;2023-08-24T13:27:43;7.75;;;2.83;;
77800;SDS011;66991;50.058;14.454;2023-08-24T13:30:08;4.57;;;2.95;;
77800;SDS011;66991;50.058;14.454;2023-08-24T13:32:34;4.97;;;3.00;;
77800;SDS011;66991;50.058;14.454;2023-08-24T13:35:00;7.55;;;2.92;;
77800;SDS011;66991;50.058;14.454;2023-08-24T13:37:26;5.10;;;2.65;;
77800;SDS011;66991;50.058;14.454;2023-08-24T13:39:51;8.95;;;3.33;;
77800;SDS011;66991;50.058;14.454;2023-08-24T13:42:17;7.18;;;3.35;;
77800;SDS011;66991;50.058;14.454;2023-08-24T13:44:42;7.07;;;2.90;;
77800;SDS011;66991;50.058;14.454;2023-08-24T13:47:08;4.38;;;2.70;;
77800;SDS011;66991;50.058;14.454;2023-08-24T13:49:33;7.20;;;3.15;;
77800;SDS011;66991;50.058;14.454;2023-08-24T13:51:58;5.63;;;2.97;;
77800;SDS011;66991;50.058;14.454;2023-08-24T13:54:24;6.63;;;3.33;;
77800;SDS011;66991;50.058;14.454;2023-08-24T13:56:51;7.35;;;2.92;;
77800;SDS011;66991;50.058;14.454;2023-08-24T13:59:18;6.60;;;2.83;;
77800;SDS011;66991;50.058;14.454;2023-08-24T14:01:44;7.85;;;2.88;;
77800;SDS011;66991;50.058;14.454;2023-08-24T14:04:09;4.93;;;2.63;;
77800;SDS011;66991;50.058;14.454;2023-08-24T14:06:35;5.10;;;2.70;;
77800;SDS011;66991;50.058;14.454;2023-08-24T14:09:02;5.22;;;2.70;;
77800;SDS011;66991;50.058;14.454;2023-08-24T14:11:30;6.95;;;2.72;;
77800;SDS011;66991;50.058;14.454;2023-08-24T14:13:56;4.88;;;2.65;;
77800;SDS011;66991;50.058;14.454;2023-08-24T14:16:22;7.72;;;2.90;;
77800;SDS011;66991;50.058;14.454;2023-08-24T14:18:47;4.50;;;2.63;;
77800;SDS011;66991;50.058;14.454;2023-08-24T14:21:13;4.85;;;2.55;;
77800;SDS011;66991;50.058;14.454;2023-08-24T14:23:39;6.07;;;3.03;;
77800;SDS011;66991;50.058;14.454;2023-08-24T14:26:04;6.78;;;2.97;;
77800;SDS011;66991;50.058;14.454;2023-08-24T14:31:15;6.10;;;3.08;;
77800;SDS011;66991;50.058;14.454;2023-08-24T14:33:41;4.75;;;3.05;;
77800;SDS011;66991;50.058;14.454;2023-08-24T14:36:06;4.55;;;2.75;;
77800;SDS011;66991;50.058;14.454;2023-08-24T14:38:31;7.57;;;2.92;;
77800;SDS011;66991;50.058;14.454;2023-08-24T14:40:57;6.03;;;2.70;;
77800;SDS011;66991;50.058;14.454;2023-08-24T14:43:22;5.07;;;2.92;;
77800;SDS011;66991;50.058;14.454;2023-08-24T14:45:47;8.15;;;3.47;;
77800;SDS011;66991;50.058;14.454;2023-08-24T14:48:13;5.30;;;2.80;;